This is the latest recevied weather packets stored in our database for station/object N9VPV. If no packets are shown the sender has not sent any weather packets the latest 10 day(s).
| Time | Temp. | Humidity | Pressure | Rain* | Wind** | Luminosity | Snow |
|---|---|---|---|---|---|---|---|
| 1777562790 | 14.44° C | 46% | 1016.5 hPa | 0 mm | - | 91 W/m² | - |
| 1777561890 | 13.89° C | 45% | 1016.6 hPa | 0 mm | - | 88 W/m² | - |
| 1777560992 | 12.78° C | 46% | 1016.6 hPa | 0 mm | - | 16 W/m² | - |
| 1777560091 | 12.78° C | 45% | 1016.5 hPa | 0 mm | - | 0 W/m² | - |
| 1777559190 | 12.78° C | 47% | 1016.6 hPa | 0 mm | - | 0 W/m² | - |
| 1777558288 | 12.78° C | 48% | 1016.8 hPa | 0 mm | - | 0 W/m² | - |
| 1777557384 | 11.67° C | 53% | 1016.6 hPa | 0 mm | - | 0 W/m² | - |
| 1777556482 | 10.56° C | 60% | 1016.7 hPa | 0 mm | - | 0 W/m² | - |
| 1777555581 | 9.44° C | 63% | 1016.8 hPa | 0 mm | - | 0 W/m² | - |
| 1777554668 | 8.33° C | 66% | 1016.9 hPa | 0 mm | - | 0 W/m² | - |
| 1777553764 | 7.78° C | 70% | 1017 hPa | 0 mm | - | 0 W/m² | - |
| 1777552862 | 6.67° C | 72% | 1017.2 hPa | 0 mm | - | 0 W/m² | - |
| 1777551963 | 5.56° C | 74% | 1017 hPa | 0 mm | - | 0 W/m² | - |
| 1777551062 | 4.44° C | 79% | 1016.8 hPa | 0 mm | - | 0 W/m² | - |
| 1777550159 | 3.33° C | 82% | 1016.8 hPa | 0 mm | - | 0 W/m² | - |
| 1777549259 | 2.78° C | 84% | 1016.6 hPa | 0 mm | - | 0 W/m² | - |
| 1777548358 | 2.78° C | 84% | 1016.5 hPa | 0 mm | - | 0 W/m² | - |
| 1777547458 | 2.78° C | 83% | 1016.5 hPa | 0 mm | - | 0 W/m² | - |
| 1777546557 | 2.78° C | 83% | 1016.4 hPa | 0 mm | - | 0 W/m² | - |
| 1777545628 | 2.78° C | 82% | 1016.5 hPa | 0 mm | - | 0 W/m² | - |
| 1777544713 | 2.78° C | 83% | 1016.5 hPa | 0 mm | - | 0 W/m² | - |
| 1777543805 | 2.78° C | 82% | 1016.5 hPa | 0 mm | - | 0 W/m² | - |
| 1777542900 | 2.78° C | 81% | 1016.6 hPa | 0 mm | - | 0 W/m² | - |
| 1777542000 | 2.78° C | 80% | 1016.7 hPa | 0 mm | - | 0 W/m² | - |
| 1777541093 | 3.33° C | 80% | 1016.8 hPa | 0 mm | - | 0 W/m² | - |
* Rain latest hour (hover to see other rain measurements)
** Current wind speed in m/s (hover to see current wind gust speed)